Time,TemperatureF,DewpointF,PressureIn,WindDirection,WindDirectionDegrees,WindSpeedMPH,WindSpeedGustMPH,Humidity,HourlyPrecipIn,Conditions,Clouds,dailyrainin,SoftwareType,DateUTC
2014-02-05 00:01:00,46.6,46.3,29.82,East,90,8.1,8.1,99,0.00,-SN,,0.00,WeatherDisplay:10.37,2014-02-05 05:01:00,
2014-02-05 00:02:00,46.6,46.3,29.82,ESE,112,10.4,10.4,99,0.00,-SN,,0.00,WeatherDisplay:10.37,2014-02-05 05:02:00,
2014-02-05 00:03:00,46.6,46.3,29.82,ESE,112,10.4,10.4,99,0.00,-SN,,0.00,WeatherDisplay:10.37,2014-02-05 05:03:00,
2014-02-05 00:04:00,46.6,46.3,29.82,ESE,112,9.4,9.4,99,0.00,-SN,,0.00,WeatherDisplay:10.37,2014-02-05 05:04:00,
2014-02-05 00:09:00,46.6,46.3,29.82,ESE,112,9.2,9.2,99,0.00,-SN,,0.00,WeatherDisplay:10.37,2014-02-05 05:09:00,
2014-02-05 00:14:00,46.6,46.3,29.80,East,90,11.4,11.4,99,0.00,-SN,,0.00,WeatherDisplay:10.37,2014-02-05 05:14:00,
2014-02-05 00:19:00,46.6,46.3,29.80,ESE,112,10.4,10.4,99,0.00,-SN,,0.00,WeatherDisplay:10.37,2014-02-05 05:19:00,
2014-02-05 00:24:00,46.6,46.3,29.79,ESE,112,10.4,10.4,99,0.00,-SN,,0.00,WeatherDisplay:10.37,2014-02-05 05:24:00,
2014-02-05 00:29:00,46.6,46.3,29.79,ESE,112,6.9,6.9,99,0.00,-SN,,0.00,WeatherDisplay:10.37,2014-02-05 05:29:00,
2014-02-05 00:34:00,46.6,46.3,29.79,ESE,112,10.4,10.5,99,0.00,-SN,,0.00,WeatherDisplay:10.37,2014-02-05 05:34:00,
2014-02-05 00:39:00,46.6,46.3,29.78,ESE,112,11.5,11.5,99,0.00,-SN,,0.00,WeatherDisplay:10.37,2014-02-05 05:39:00,
2014-02-05 00:44:00,46.6,46.3,29.78,ENE,68,11.5,11.5,99,0.00,-SN,,0.00,WeatherDisplay:10.37,2014-02-05 05:44:00,
2014-02-05 00:49:00,46.6,46.3,29.76,ESE,112,11.5,11.5,99,0.00,-SN,,0.00,WeatherDisplay:10.37,2014-02-05 05:49:00,
2014-02-05 00:54:00,46.6,46.3,29.76,ESE,112,12.7,12.7,99,0.00,-SN,,0.00,WeatherDisplay:10.37,2014-02-05 05:54:00,
2014-02-05 00:59:00,46.6,46.3,29.76,ESE,112,10.4,10.4,99,0.00,-SN,,0.00,WeatherDisplay:10.37,2014-02-05 05:59:00,
2014-02-05 01:04:00,46.6,46.3,29.76,ESE,112,10.4,10.4,99,0.00,OVC,,0.00,WeatherDisplay:10.37,2014-02-05 06:04:00,
2014-02-05 01:09:00,46.6,46.3,29.76,East,90,8.1,8.1,99,0.00,OVC,,0.00,WeatherDisplay:10.37,2014-02-05 06:09:00,
2014-02-05 01:14:00,46.6,46.3,29.76,East,90,8.3,8.3,99,0.00,OVC,,0.00,WeatherDisplay:10.37,2014-02-05 06:14:00,
2014-02-05 01:19:00,46.6,46.3,29.76,ESE,112,8.1,8.1,99,0.00,OVC,,0.00,WeatherDisplay:10.37,2014-02-05 06:19:00,
2014-02-05 01:24:00,46.6,46.3,29.74,ESE,112,9.2,9.2,99,0.00,OVC,,0.00,WeatherDisplay:10.37,2014-02-05 06:24:00,
2014-02-05 01:29:00,46.6,46.3,29.74,ESE,112,10.4,10.4,99,0.00,OVC,,0.00,WeatherDisplay:10.37,2014-02-05 06:29:00,
2014-02-05 01:34:00,46.6,46.3,29.74,ESE,112,8.1,8.1,99,0.00,OVC,,0.00,WeatherDisplay:10.37,2014-02-05 06:34:00,
2014-02-05 01:39:00,46.6,46.3,29.74,ESE,112,10.4,10.4,99,0.00,OVC,,0.00,WeatherDisplay:10.37,2014-02-05 06:39:00,
2014-02-05 01:44:00,46.6,46.3,29.74,ESE,112,9.2,9.2,99,0.00,OVC,,0.00,WeatherDisplay:10.37,2014-02-05 06:44:00,
2014-02-05 01:49:00,46.6,46.3,29.73,ESE,112,8.3,8.3,99,0.00,OVC,,0.00,WeatherDisplay:10.37,2014-02-05 06:49:00,
2014-02-05 01:54:00,46.6,46.3,29.73,ESE,112,10.4,10.4,99,0.00,OVC,,0.00,WeatherDisplay:10.37,2014-02-05 06:54:00,
2014-02-05 01:59:00,46.6,46.3,29.73,ESE,112,9.2,9.2,99,0.00,OVC,,0.00,WeatherDisplay:10.37,2014-02-05 06:59:00,
2014-02-05 02:04:00,46.6,46.3,29.72,ESE,112,8.8,8.8,99,0.00,OVC,,0.00,WeatherDisplay:10.37,2014-02-05 07:04:00,
2014-02-05 02:09:00,46.6,46.3,29.72,East,90,9.2,9.2,99,0.00,OVC,,0.00,WeatherDisplay:10.37,2014-02-05 07:09:00,
2014-02-05 02:14:00,46.6,46.3,29.72,East,90,8.1,8.1,99,0.00,OVC,,0.00,WeatherDisplay:10.37,2014-02-05 07:14:00,
2014-02-05 02:19:00,46.6,46.3,29.72,ESE,112,8.8,8.8,99,0.00,OVC,,0.00,WeatherDisplay:10.37,2014-02-05 07:19:00,
2014-02-05 02:24:00,46.6,46.3,29.72,ESE,112,5.8,5.8,99,0.00,OVC,,0.00,WeatherDisplay:10.37,2014-02-05 07:24:00,
2014-02-05 02:29:00,46.6,46.3,29.71,East,90,5.8,5.8,99,0.00,OVC,,0.00,WeatherDisplay:10.37,2014-02-05 07:29:00,
2014-02-05 02:34:00,46.6,46.3,29.71,ESE,112,4.6,4.6,99,0.00,OVC,,0.00,WeatherDisplay:10.37,2014-02-05 07:34:00,
2014-02-05 02:39:00,46.6,46.3,29.72,SE,135,5.8,5.8,99,0.00,OVC,,0.00,WeatherDisplay:10.37,2014-02-05 07:39:00,
2014-02-05 02:44:00,46.6,46.3,29.72,ESE,112,8.1,8.1,99,0.00,OVC,,0.00,WeatherDisplay:10.37,2014-02-05 07:44:00,
2014-02-05 02:49:00,46.6,46.3,29.70,ESE,112,7.3,7.3,99,0.00,OVC,,0.00,WeatherDisplay:10.37,2014-02-05 07:49:00,
2014-02-05 02:54:00,46.6,46.3,29.70,East,90,8.1,8.1,99,0.00,OVC,,0.00,WeatherDisplay:10.37,2014-02-05 07:54:00,
2014-02-05 02:59:00,46.6,46.3,29.70,ESE,112,7.3,7.3,99,0.00,OVC,,0.00,WeatherDisplay:10.37,2014-02-05 07:59:00,
2014-02-05 03:04:00,46.6,46.3,29.69,ESE,112,9.2,9.2,99,0.00,OVC,,0.00,WeatherDisplay:10.37,2014-02-05 08:04:00,
2014-02-05 03:09:00,46.6,46.3,29.69,East,90,9.2,9.2,99,0.00,OVC,,0.00,WeatherDisplay:10.37,2014-02-05 08:09:00,
2014-02-05 03:14:00,46.6,46.3,29.68,ESE,112,8.1,8.1,99,0.00,OVC,,0.00,WeatherDisplay:10.37,2014-02-05 08:14:00,
2014-02-05 03:19:00,46.6,46.3,29.68,ESE,112,8.1,8.1,99,0.00,OVC,,0.00,WeatherDisplay:10.37,2014-02-05 08:19:00,
2014-02-05 03:24:00,46.6,46.3,29.68,ESE,112,7.3,7.3,99,0.00,OVC,,0.00,WeatherDisplay:10.37,2014-02-05 08:24:00,
2014-02-05 03:29:00,46.6,46.3,29.68,East,90,5.8,5.8,99,0.00,OVC,,0.00,WeatherDisplay:10.37,2014-02-05 08:29:00,
2014-02-05 03:34:00,46.6,46.3,29.68,ESE,112,5.8,5.8,99,0.00,OVC,,0.00,WeatherDisplay:10.37,2014-02-05 08:34:00,
2014-02-05 03:39:00,46.6,46.3,29.68,ESE,112,6.9,6.9,99,0.00,OVC,,0.00,WeatherDisplay:10.37,2014-02-05 08:39:00,
2014-02-05 03:44:00,46.6,46.3,29.68,East,90,6.3,6.3,99,0.00,OVC,,0.00,WeatherDisplay:10.37,2014-02-05 08:44:00,
2014-02-05 03:49:00,46.6,46.3,29.66,ESE,112,5.8,5.8,99,0.00,OVC,,0.00,WeatherDisplay:10.37,2014-02-05 08:49:00,
2014-02-05 03:54:00,46.6,46.3,29.66,ESE,112,5.8,5.8,99,0.01,RA,,0.01,WeatherDisplay:10.37,2014-02-05 08:54:00,
2014-02-05 03:59:00,46.6,46.3,29.66,ESE,112,7.3,7.3,99,0.01,RA,,0.01,WeatherDisplay:10.37,2014-02-05 08:59:00,
2014-02-05 04:04:00,46.6,46.3,29.65,ESE,112,7.3,7.3,99,0.01,OVC,,0.01,WeatherDisplay:10.37,2014-02-05 09:04:00,
2014-02-05 04:09:00,46.6,46.3,29.65,ESE,112,6.9,6.9,99,0.02,RA,,0.02,WeatherDisplay:10.37,2014-02-05 09:09:00,
2014-02-05 04:14:00,46.6,46.3,29.62,ESE,112,6.9,6.9,99,0.02,RA,,0.02,WeatherDisplay:10.37,2014-02-05 09:14:00,
2014-02-05 04:19:00,46.6,46.3,29.62,ESE,112,5.8,5.8,99,0.02,OVC,,0.02,WeatherDisplay:10.37,2014-02-05 09:19:00,
2014-02-05 04:24:00,46.6,46.3,29.62,ESE,112,5.8,5.8,99,0.02,OVC,,0.02,WeatherDisplay:10.37,2014-02-05 09:24:00,
2014-02-05 04:29:00,46.6,46.3,29.63,East,90,5.8,5.8,99,0.02,OVC,,0.02,WeatherDisplay:10.37,2014-02-05 09:29:00,
2014-02-05 04:34:00,46.6,46.3,29.63,East,90,6.9,6.9,99,0.02,OVC,,0.02,WeatherDisplay:10.37,2014-02-05 09:34:00,
2014-02-05 04:39:00,46.6,46.3,29.62,ESE,112,5.8,5.8,99,0.02,OVC,,0.02,WeatherDisplay:10.37,2014-02-05 09:39:00,
2014-02-05 04:44:00,46.6,46.3,29.62,SE,135,5.8,5.8,99,0.02,OVC,,0.02,WeatherDisplay:10.37,2014-02-05 09:44:00,
2014-02-05 04:49:00,46.6,46.3,29.58,SE,135,6.9,6.9,99,0.02,OVC,,0.02,WeatherDisplay:10.37,2014-02-05 09:49:00,
2014-02-05 04:54:00,46.6,46.3,29.58,SE,135,7.3,7.3,99,0.01,OVC,,0.02,WeatherDisplay:10.37,2014-02-05 09:54:00,
2014-02-05 04:59:00,46.6,46.3,29.58,SE,135,8.1,8.1,99,0.01,OVC,,0.02,WeatherDisplay:10.37,2014-02-05 09:59:00,
2014-02-05 05:04:00,46.6,46.3,29.56,SE,135,5.8,5.8,99,0.01,OVC,,0.02,WeatherDisplay:10.37,2014-02-05 10:04:00,
2014-02-05 05:09:00,46.6,46.3,29.56,SE,135,6.9,6.9,99,0.00,OVC,,0.02,WeatherDisplay:10.37,2014-02-05 10:09:00,
2014-02-05 05:14:00,46.6,46.3,29.55,SE,135,5.8,5.8,99,0.00,OVC,,0.02,WeatherDisplay:10.37,2014-02-05 10:14:00,
2014-02-05 05:19:00,46.6,46.3,29.55,SE,135,5.8,5.8,99,0.00,OVC,,0.02,WeatherDisplay:10.37,2014-02-05 10:19:00,
2014-02-05 05:24:00,46.6,46.3,29.55,SE,135,5.8,5.8,99,0.00,OVC,,0.02,WeatherDisplay:10.37,2014-02-05 10:24:00,
2014-02-05 05:29:00,46.6,46.3,29.53,SE,135,4.6,4.6,99,0.00,OVC,,0.02,WeatherDisplay:10.37,2014-02-05 10:29:00,
2014-02-05 05:34:00,46.6,46.3,29.53,SE,135,4.7,4.7,99,0.00,OVC,,0.02,WeatherDisplay:10.37,2014-02-05 10:34:00,
2014-02-05 05:39:00,46.6,46.3,29.53,SE,135,5.3,5.3,99,0.00,OVC,,0.02,WeatherDisplay:10.37,2014-02-05 10:39:00,
2014-02-05 05:44:00,46.6,46.3,29.53,SE,135,5.8,5.8,99,0.00,OVC,,0.02,WeatherDisplay:10.37,2014-02-05 10:44:00,
2014-02-05 05:49:00,46.6,46.3,29.51,SE,135,4.6,4.6,99,0.00,OVC,,0.02,WeatherDisplay:10.37,2014-02-05 10:49:00,
2014-02-05 05:54:00,46.6,46.3,29.51,SE,135,5.8,5.8,99,0.00,OVC,,0.02,WeatherDisplay:10.37,2014-02-05 10:54:00,
2014-02-05 05:59:00,46.6,46.3,29.51,SE,135,4.6,4.6,99,0.00,OVC,,0.02,WeatherDisplay:10.37,2014-02-05 10:59:00,
2014-02-05 06:04:00,46.6,46.3,29.51,SE,135,4.6,4.6,99,0.00,OVC,,0.02,WeatherDisplay:10.37,2014-02-05 11:04:00,
2014-02-05 06:09:00,46.6,46.3,29.51,SE,135,3.5,3.5,99,0.00,OVC,,0.02,WeatherDisplay:10.37,2014-02-05 11:09:00,
2014-02-05 06:14:00,46.6,46.3,29.51,SE,135,2.3,2.3,99,0.00,OVC,,0.02,WeatherDisplay:10.37,2014-02-05 11:14:00,
2014-02-05 06:19:00,46.6,46.3,29.51,SE,135,4.6,4.6,99,0.00,OVC,,0.02,WeatherDisplay:10.37,2014-02-05 11:19:00,
2014-02-05 06:24:00,46.6,46.3,29.51,SE,135,4.7,4.7,99,0.00,OVC,,0.02,WeatherDisplay:10.37,2014-02-05 11:24:00,
2014-02-05 06:29:00,46.6,46.3,29.48,SE,135,4.6,4.6,99,0.00,OVC,,0.02,WeatherDisplay:10.37,2014-02-05 11:29:00,
2014-02-05 06:34:00,46.6,46.3,29.48,SE,135,4.6,4.6,99,0.00,OVC,,0.02,WeatherDisplay:10.37,2014-02-05 11:34:00,
2014-02-05 06:39:00,46.6,46.3,29.47,SE,135,4.6,4.6,99,0.00,OVC,,0.02,WeatherDisplay:10.37,2014-02-05 11:39:00,
2014-02-05 06:44:00,46.6,46.3,29.47,SE,135,5.8,5.8,99,0.00,OVC,,0.02,WeatherDisplay:10.37,2014-02-05 11:44:00,
2014-02-05 06:49:00,46.6,46.3,29.46,SE,135,5.8,6.1,99,0.00,OVC,,0.02,WeatherDisplay:10.37,2014-02-05 11:49:00,
2014-02-05 06:54:00,46.6,46.3,29.46,SE,135,5.8,5.8,99,0.00,OVC,,0.02,WeatherDisplay:10.37,2014-02-05 11:54:00,
2014-02-05 06:59:00,46.6,46.3,29.46,SE,135,4.6,4.6,99,0.00,OVC,,0.02,WeatherDisplay:10.37,2014-02-05 11:59:00,
2014-02-05 07:04:00,46.6,46.3,29.46,SE,135,3.5,3.5,99,0.00,OVC,,0.02,WeatherDisplay:10.37,2014-02-05 12:04:00,
2014-02-05 07:09:00,46.6,46.3,29.46,SE,135,3.5,3.5,99,0.00,OVC,,0.02,WeatherDisplay:10.37,2014-02-05 12:09:00,
2014-02-05 07:14:00,46.6,46.3,29.45,SE,135,4.6,4.6,99,0.00,OVC,,0.02,WeatherDisplay:10.37,2014-02-05 12:14:00,
2014-02-05 07:19:00,46.6,46.3,29.45,SE,135,4.6,4.6,99,0.00,OVC,,0.02,WeatherDisplay:10.37,2014-02-05 12:19:00,
2014-02-05 07:24:00,46.6,46.3,29.45,SE,135,3.7,3.7,99,0.00,OVC,,0.02,WeatherDisplay:10.37,2014-02-05 12:24:00,
2014-02-05 07:29:00,46.6,46.3,29.44,SE,135,4.6,4.6,99,0.00,OVC,,0.02,WeatherDisplay:10.37,2014-02-05 12:29:00,
2014-02-05 07:34:00,46.6,46.3,29.44,SE,135,4.6,4.6,99,0.00,OVC,,0.02,WeatherDisplay:10.37,2014-02-05 12:34:00,
2014-02-05 07:39:00,46.6,46.3,29.43,SE,135,4.6,4.6,99,0.00,OVC,,0.02,WeatherDisplay:10.37,2014-02-05 12:39:00,
2014-02-05 07:44:00,46.6,46.3,29.43,SE,135,4.6,4.6,99,0.00,OVC,,0.02,WeatherDisplay:10.37,2014-02-05 12:44:00,
2014-02-05 07:49:00,46.6,46.3,29.43,SE,135,4.6,4.6,99,0.00,OVC,,0.02,WeatherDisplay:10.37,2014-02-05 12:49:00,
2014-02-05 07:54:00,46.6,46.3,29.43,SE,135,4.6,4.6,99,0.00,OVC,,0.02,WeatherDisplay:10.37,2014-02-05 12:54:00,
2014-02-05 07:59:00,46.6,46.3,29.43,SE,135,4.2,4.2,99,0.00,OVC,,0.02,WeatherDisplay:10.37,2014-02-05 12:59:00,
2014-02-05 08:04:00,46.6,46.3,29.42,SE,135,4.6,4.6,99,0.00,OVC,,0.02,WeatherDisplay:10.37,2014-02-05 13:04:00,
2014-02-05 08:09:00,46.6,46.3,29.42,SE,135,4.6,4.6,99,0.00,OVC,,0.02,WeatherDisplay:10.37,2014-02-05 13:09:00,
2014-02-05 08:14:00,46.6,46.3,29.41,SE,135,3.7,3.7,99,0.00,OVC,,0.02,WeatherDisplay:10.37,2014-02-05 13:14:00,
2014-02-05 08:19:00,46.6,46.3,29.41,SE,135,3.7,3.7,99,0.00,OVC,,0.02,WeatherDisplay:10.37,2014-02-05 13:19:00,
2014-02-05 08:24:00,46.6,46.3,29.40,SE,135,3.5,3.5,99,0.00,OVC,,0.02,WeatherDisplay:10.37,2014-02-05 13:24:00,
2014-02-05 08:29:00,46.6,46.3,29.40,SE,135,4.2,4.2,99,0.00,OVC,,0.02,WeatherDisplay:10.37,2014-02-05 13:29:00,
2014-02-05 08:34:00,46.6,46.3,29.40,SE,135,3.5,3.5,99,0.00,OVC,,0.02,WeatherDisplay:10.37,2014-02-05 13:34:00,
2014-02-05 08:39:00,46.6,46.3,29.40,SE,135,3.5,3.5,99,0.00,OVC,,0.02,WeatherDisplay:10.37,2014-02-05 13:39:00,
2014-02-05 08:44:00,46.6,46.3,29.40,SE,135,0.0,0.0,99,0.00,OVC,,0.02,WeatherDisplay:10.37,2014-02-05 13:44:00,
2014-02-05 08:49:00,46.6,46.3,29.40,SE,135,2.2,2.2,99,0.00,OVC,,0.02,WeatherDisplay:10.37,2014-02-05 13:49:00,
2014-02-05 08:54:00,46.6,46.3,29.40,SE,135,2.3,0.0,99,0.00,OVC,,0.02,WeatherDisplay:10.37,2014-02-05 13:54:00,
2014-02-05 08:59:00,46.6,46.3,29.40,SE,135,0.0,0.0,99,0.00,OVC,,0.02,WeatherDisplay:10.37,2014-02-05 13:59:00,
2014-02-05 09:04:00,46.6,46.3,29.40,SE,135,4.6,4.6,99,0.00,-RA,,0.02,WeatherDisplay:10.37,2014-02-05 14:04:00,
2014-02-05 09:09:00,46.6,46.3,29.40,SE,135,4.6,4.6,99,0.00,-RA,,0.02,WeatherDisplay:10.37,2014-02-05 14:09:00,
2014-02-05 09:14:00,46.6,46.3,29.41,SE,135,4.6,4.6,99,0.00,-RA,,0.02,WeatherDisplay:10.37,2014-02-05 14:14:00,
2014-02-05 09:19:00,46.6,46.3,29.41,SE,135,3.5,3.5,99,0.00,-RA,,0.02,WeatherDisplay:10.37,2014-02-05 14:19:00,
2014-02-05 09:24:00,46.6,46.3,29.42,SE,135,3.7,3.7,99,0.00,-RA,,0.02,WeatherDisplay:10.37,2014-02-05 14:24:00,
2014-02-05 09:29:00,46.6,46.3,29.42,SE,135,3.5,3.5,99,0.00,-RA,,0.02,WeatherDisplay:10.37,2014-02-05 14:29:00,
2014-02-05 09:34:00,46.6,46.3,29.42,SE,135,7.3,7.3,99,0.00,OVC,,0.02,WeatherDisplay:10.37,2014-02-05 14:34:00,
2014-02-05 09:39:00,46.6,46.3,29.42,SE,135,9.2,9.2,99,0.00,OVC,,0.02,WeatherDisplay:10.37,2014-02-05 14:39:00,
2014-02-05 09:44:00,46.6,46.3,29.42,SE,135,6.8,6.8,99,0.00,OVC,,0.02,WeatherDisplay:10.37,2014-02-05 14:44:00,
2014-02-05 09:49:00,46.6,46.3,29.42,SW,225,9.2,9.2,99,0.00,OVC,,0.02,WeatherDisplay:10.37,2014-02-05 14:49:00,
2014-02-05 09:54:00,46.6,46.3,29.42,SSW,202,16.1,16.1,99,0.00,OVC,,0.02,WeatherDisplay:10.37,2014-02-05 14:54:00,
2014-02-05 09:59:00,46.6,46.3,29.42,WSW,248,14.0,14.0,99,0.00,OVC,,0.02,WeatherDisplay:10.37,2014-02-05 14:59:00,
2014-02-05 10:04:00,46.6,46.3,29.44,SW,225,11.5,11.5,99,0.01,-RA,,0.03,WeatherDisplay:10.37,2014-02-05 15:04:00,
2014-02-05 10:09:00,46.6,46.3,29.44,WSW,248,13.8,13.8,99,0.01,-RA,,0.03,WeatherDisplay:10.37,2014-02-05 15:09:00,
2014-02-05 10:14:00,46.6,46.3,29.44,West,270,16.1,16.1,99,0.02,-RA,,0.04,WeatherDisplay:10.37,2014-02-05 15:14:00,
2014-02-05 10:19:00,46.6,46.3,29.44,SW,225,17.3,17.3,99,0.02,-RA,,0.04,WeatherDisplay:10.37,2014-02-05 15:19:00,
2014-02-05 10:24:00,46.6,46.3,29.44,SW,225,17.3,17.3,99,0.03,-RA,,0.06,WeatherDisplay:10.37,2014-02-05 15:24:00,
2014-02-05 10:29:00,46.6,46.3,29.45,WSW,248,21.9,21.9,99,0.04,-RA,,0.06,WeatherDisplay:10.37,2014-02-05 15:29:00,
2014-02-05 10:34:00,46.6,46.3,29.45,WSW,248,20.7,20.7,99,0.06,RA,,0.08,WeatherDisplay:10.37,2014-02-05 15:34:00,
2014-02-05 10:39:00,46.6,46.3,29.47,WSW,248,18.4,18.4,99,0.07,RA,,0.09,WeatherDisplay:10.37,2014-02-05 15:39:00,
2014-02-05 10:44:00,46.6,46.3,29.47,WSW,248,20.7,20.7,99,0.08,RA,,0.10,WeatherDisplay:10.37,2014-02-05 15:44:00,
2014-02-05 10:50:00,46.6,46.3,29.47,SW,225,24.2,24.2,99,0.10,RA,,0.12,WeatherDisplay:10.37,2014-02-05 15:50:00,
2014-02-05 10:55:00,46.6,46.3,29.47,SW,225,16.6,17.5,99,0.11,RA,,0.13,WeatherDisplay:10.37,2014-02-05 15:55:00,
2014-02-05 11:00:00,46.6,46.3,29.47,WSW,248,17.3,17.3,99,0.12,RA,,0.14,WeatherDisplay:10.37,2014-02-05 16:00:00,
2014-02-05 11:05:00,46.6,46.3,29.48,SW,225,25.3,25.3,99,0.11,RA,,0.15,WeatherDisplay:10.37,2014-02-05 16:05:00,
2014-02-05 11:10:00,46.6,46.3,29.48,WSW,248,23.0,23.0,99,0.13,RA,,0.16,WeatherDisplay:10.37,2014-02-05 16:10:00,
2014-02-05 11:15:00,46.6,46.3,29.48,SW,225,20.7,20.7,99,0.14,RA,,0.18,WeatherDisplay:10.37,2014-02-05 16:15:00,
2014-02-05 11:20:00,46.6,46.3,29.48,WSW,248,21.9,21.9,99,0.15,RA,,0.20,WeatherDisplay:10.37,2014-02-05 16:20:00,
2014-02-05 11:25:00,46.6,46.3,29.49,SW,225,23.0,23.0,99,0.15,RA,,0.21,WeatherDisplay:10.37,2014-02-05 16:25:00,
2014-02-05 11:30:00,46.6,46.3,29.49,West,270,18.4,18.4,99,0.16,RA,,0.23,WeatherDisplay:10.37,2014-02-05 16:30:00,
2014-02-05 11:35:00,46.6,46.3,29.49,SW,225,16.1,16.1,99,0.16,RA,,0.24,WeatherDisplay:10.37,2014-02-05 16:35:00,
2014-02-05 11:40:00,46.6,46.3,29.50,SW,225,18.4,18.4,99,0.15,RA,,0.25,WeatherDisplay:10.37,2014-02-05 16:40:00,
2014-02-05 11:45:00,46.6,46.3,29.50,SW,225,16.1,16.1,99,0.15,RA,,0.25,WeatherDisplay:10.37,2014-02-05 16:45:00,
2014-02-05 11:50:00,46.6,46.3,29.51,SW,225,20.7,20.7,99,0.14,RA,,0.26,WeatherDisplay:10.37,2014-02-05 16:50:00,
2014-02-05 11:55:00,46.6,46.3,29.51,WSW,248,28.8,28.8,99,0.14,RA,,0.27,WeatherDisplay:10.37,2014-02-05 16:55:00,
2014-02-05 12:00:00,46.6,46.3,29.51,SW,225,17.3,17.3,99,0.14,RA,,0.28,WeatherDisplay:10.37,2014-02-05 17:00:00,
2014-02-05 12:05:00,46.6,46.3,29.51,SW,225,23.0,23.0,99,0.15,RA,,0.29,WeatherDisplay:10.37,2014-02-05 17:05:00,
2014-02-05 12:10:00,46.6,46.3,29.51,SW,225,17.3,17.3,99,0.14,RA,,0.30,WeatherDisplay:10.37,2014-02-05 17:10:00,
2014-02-05 12:15:00,46.6,46.3,29.51,WSW,248,24.8,24.8,99,0.12,RA,,0.30,WeatherDisplay:10.37,2014-02-05 17:15:00,
2014-02-05 12:20:00,46.6,46.3,29.51,SW,225,23.0,23.0,99,0.12,RA,,0.31,WeatherDisplay:10.37,2014-02-05 17:20:00,
2014-02-05 12:25:00,46.6,46.3,29.51,SW,225,19.6,19.6,99,0.11,RA,,0.32,WeatherDisplay:10.37,2014-02-05 17:25:00,
2014-02-05 12:30:00,46.6,46.3,29.51,SW,225,19.6,19.6,99,0.10,RA,,0.32,WeatherDisplay:10.37,2014-02-05 17:30:00,
2014-02-05 12:35:00,46.6,46.3,29.51,SW,225,20.7,20.7,99,0.09,OVC,,0.32,WeatherDisplay:10.37,2014-02-05 17:35:00,
2014-02-05 12:40:00,46.6,46.3,29.52,SW,225,21.9,21.9,99,0.09,RA,,0.33,WeatherDisplay:10.37,2014-02-05 17:40:00,
2014-02-05 12:45:00,46.6,46.3,29.52,WSW,248,24.2,24.2,99,0.08,RA,,0.33,WeatherDisplay:10.37,2014-02-05 17:45:00,
2014-02-05 12:50:00,46.6,46.3,29.52,SW,225,23.2,23.2,99,0.07,OVC,,0.33,WeatherDisplay:10.37,2014-02-05 17:50:00,
2014-02-05 12:55:00,46.6,46.3,29.52,SW,225,25.3,25.3,99,0.07,RA,,0.34,WeatherDisplay:10.37,2014-02-05 17:55:00,
2014-02-05 13:00:00,46.6,46.3,29.52,WSW,248,25.3,25.3,99,0.06,RA,,0.34,WeatherDisplay:10.37,2014-02-05 18:00:00,
2014-02-05 13:05:00,46.6,46.3,29.52,WSW,248,21.2,21.2,99,0.05,OVC,,0.34,WeatherDisplay:10.37,2014-02-05 18:05:00,
2014-02-05 13:10:00,46.6,46.3,29.52,SW,225,29.9,29.9,99,0.04,OVC,,0.34,WeatherDisplay:10.37,2014-02-05 18:10:00,
2014-02-05 13:15:00,46.6,46.3,29.52,SW,225,32.2,32.2,99,0.04,OVC,,0.34,WeatherDisplay:10.37,2014-02-05 18:15:00,
2014-02-05 13:20:00,46.6,46.3,29.52,WSW,248,28.8,28.8,99,0.03,OVC,,0.34,WeatherDisplay:10.37,2014-02-05 18:20:00,
2014-02-05 13:25:00,46.6,46.3,29.53,SW,225,29.9,29.9,99,0.02,OVC,,0.34,WeatherDisplay:10.37,2014-02-05 18:25:00,
2014-02-05 13:30:00,46.6,46.3,29.53,WSW,248,25.3,25.9,99,0.02,OVC,,0.34,WeatherDisplay:10.37,2014-02-05 18:30:00,
2014-02-05 13:35:00,46.6,46.3,29.53,WSW,248,24.2,24.2,99,0.02,OVC,,0.34,WeatherDisplay:10.37,2014-02-05 18:35:00,
2014-02-05 13:41:00,46.6,46.3,29.53,WSW,248,26.5,26.5,99,0.01,OVC,,0.34,WeatherDisplay:10.37,2014-02-05 18:41:00,
2014-02-05 13:46:00,46.6,46.3,29.53,SW,225,17.3,17.3,99,0.01,OVC,,0.34,WeatherDisplay:10.37,2014-02-05 18:46:00,
2014-02-05 13:51:00,46.6,46.3,29.54,WSW,248,21.9,21.9,99,0.01,OVC,,0.34,WeatherDisplay:10.37,2014-02-05 18:51:00,
2014-02-05 13:56:00,46.6,46.3,29.54,WSW,248,17.3,17.3,99,0.00,OVC,,0.34,WeatherDisplay:10.37,2014-02-05 18:56:00,
2014-02-05 14:01:00,46.6,46.3,29.54,WSW,248,23.0,23.0,99,0.00,OVC,,0.34,WeatherDisplay:10.37,2014-02-05 19:01:00,
2014-02-05 14:06:00,46.6,46.3,29.55,SSW,202,18.4,18.4,99,0.00,OVC,,0.34,WeatherDisplay:10.37,2014-02-05 19:06:00,
2014-02-05 14:11:00,46.6,46.3,29.55,SSW,202,15.0,15.0,99,0.00,OVC,,0.34,WeatherDisplay:10.37,2014-02-05 19:11:00,
2014-02-05 14:16:00,46.6,46.3,29.55,SW,225,26.5,26.5,99,0.00,OVC,,0.34,WeatherDisplay:10.37,2014-02-05 19:16:00,
2014-02-05 14:21:00,46.6,46.3,29.55,WSW,248,22.2,22.2,99,0.00,OVC,,0.34,WeatherDisplay:10.37,2014-02-05 19:21:00,
2014-02-05 14:26:00,46.6,46.3,29.56,SW,225,23.0,23.0,99,0.00,OVC,,0.34,WeatherDisplay:10.37,2014-02-05 19:26:00,
2014-02-05 14:31:00,46.6,46.3,29.56,SW,225,17.3,17.3,99,0.00,OVC,,0.34,WeatherDisplay:10.37,2014-02-05 19:31:00,
2014-02-05 14:36:00,46.6,46.3,29.56,SW,225,20.7,20.7,99,0.00,OVC,,0.34,WeatherDisplay:10.37,2014-02-05 19:36:00,
2014-02-05 14:41:00,46.6,46.3,29.57,WSW,248,29.9,29.9,99,0.00,OVC,,0.34,WeatherDisplay:10.37,2014-02-05 19:41:00,
2014-02-05 14:46:00,46.6,46.3,29.57,WSW,248,29.9,29.9,99,0.00,OVC,,0.34,WeatherDisplay:10.37,2014-02-05 19:46:00,
2014-02-05 14:51:00,46.6,46.3,29.58,West,270,27.6,27.6,99,0.00,OVC,,0.34,WeatherDisplay:10.37,2014-02-05 19:51:00,
2014-02-05 14:56:00,46.6,46.3,29.58,SW,225,35.7,35.7,99,0.00,OVC,,0.34,WeatherDisplay:10.37,2014-02-05 19:56:00,
2014-02-05 15:01:00,46.6,46.3,29.58,WSW,248,28.8,28.8,99,0.00,-SN,,0.34,WeatherDisplay:10.37,2014-02-05 20:01:00,
2014-02-05 15:06:00,46.6,46.3,29.58,WSW,248,24.2,24.2,99,0.00,-SN,,0.34,WeatherDisplay:10.37,2014-02-05 20:06:00,
2014-02-05 15:11:00,46.6,46.3,29.58,SW,225,21.9,21.9,99,0.00,-SN,,0.34,WeatherDisplay:10.37,2014-02-05 20:11:00,
2014-02-05 15:16:00,46.6,46.3,29.60,WSW,248,24.2,24.2,99,0.00,-SN,,0.34,WeatherDisplay:10.37,2014-02-05 20:16:00,
2014-02-05 15:21:00,46.6,46.3,29.60,SW,225,30.4,30.4,99,0.00,-SN,,0.34,WeatherDisplay:10.37,2014-02-05 20:21:00,
2014-02-05 15:26:00,46.6,46.3,29.61,WSW,248,24.2,24.2,99,0.00,-SN,,0.34,WeatherDisplay:10.37,2014-02-05 20:26:00,
2014-02-05 15:31:00,46.6,46.3,29.61,West,270,26.5,26.5,99,0.00,OVC,,0.34,WeatherDisplay:10.37,2014-02-05 20:31:00,
2014-02-05 15:36:00,46.6,46.3,29.61,WSW,248,28.8,28.8,99,0.00,OVC,,0.34,WeatherDisplay:10.37,2014-02-05 20:36:00,
2014-02-05 15:41:00,46.6,46.3,29.63,SW,225,27.6,27.6,99,0.00,OVC,,0.34,WeatherDisplay:10.37,2014-02-05 20:41:00,
2014-02-05 15:46:00,46.6,46.3,29.63,WSW,248,24.2,24.2,99,0.00,OVC,,0.34,WeatherDisplay:10.37,2014-02-05 20:46:00,
2014-02-05 15:51:00,46.6,46.3,29.65,SW,225,21.9,21.9,99,0.00,OVC,,0.34,WeatherDisplay:10.37,2014-02-05 20:51:00,
2014-02-05 15:56:00,46.6,46.3,29.65,WSW,248,27.6,27.6,99,0.00,OVC,,0.34,WeatherDisplay:10.37,2014-02-05 20:56:00,
2014-02-05 16:01:00,46.6,46.3,29.65,West,270,25.3,25.3,99,0.01,RA,,0.35,WeatherDisplay:10.37,2014-02-05 21:01:00,
2014-02-05 16:06:00,46.6,46.3,29.66,SW,225,28.9,28.9,99,0.01,RA,,0.35,WeatherDisplay:10.37,2014-02-05 21:06:00,
2014-02-05 16:11:00,46.6,46.3,29.66,SW,225,27.6,27.6,99,0.01,OVC,,0.35,WeatherDisplay:10.37,2014-02-05 21:11:00,
2014-02-05 16:16:00,46.6,46.3,29.67,WSW,248,21.9,21.9,99,0.01,OVC,,0.35,WeatherDisplay:10.37,2014-02-05 21:16:00,
2014-02-05 16:21:00,46.6,46.3,29.67,WSW,248,27.6,27.6,99,0.01,OVC,,0.35,WeatherDisplay:10.37,2014-02-05 21:21:00,
2014-02-05 16:26:00,46.6,46.3,29.70,WSW,248,21.9,21.9,99,0.01,OVC,,0.35,WeatherDisplay:10.37,2014-02-05 21:26:00,
2014-02-05 16:31:00,46.6,46.3,29.70,SW,225,26.5,26.5,99,0.01,OVC,,0.35,WeatherDisplay:10.37,2014-02-05 21:31:00,
2014-02-05 16:36:00,46.6,46.3,29.72,West,270,24.2,24.2,99,0.01,OVC,,0.35,WeatherDisplay:10.37,2014-02-05 21:36:00,
2014-02-05 16:41:00,46.6,46.3,29.72,West,270,21.9,21.9,99,0.01,OVC,,0.35,WeatherDisplay:10.37,2014-02-05 21:41:00,
2014-02-05 16:46:00,46.6,46.3,29.72,West,270,25.3,25.3,99,0.01,OVC,,0.35,WeatherDisplay:10.37,2014-02-05 21:46:00,
2014-02-05 16:51:00,46.6,46.3,29.73,WSW,248,23.0,23.0,99,0.01,OVC,,0.35,WeatherDisplay:10.37,2014-02-05 21:51:00,
2014-02-05 16:56:00,46.6,46.3,29.73,WSW,248,25.3,25.3,99,0.01,OVC,,0.35,WeatherDisplay:10.37,2014-02-05 21:56:00,
2014-02-05 17:01:00,46.6,46.3,29.75,WSW,248,23.0,23.0,99,0.00,OVC,,0.35,WeatherDisplay:10.37,2014-02-05 22:01:00,
2014-02-05 17:06:00,46.6,46.3,29.75,WSW,248,20.7,20.7,99,0.00,OVC,,0.35,WeatherDisplay:10.37,2014-02-05 22:06:00,
2014-02-05 17:11:00,46.6,46.3,29.75,West,270,16.6,16.6,99,0.00,OVC,,0.35,WeatherDisplay:10.37,2014-02-05 22:11:00,
2014-02-05 17:16:00,46.6,46.3,29.76,WSW,248,16.1,16.1,99,0.00,OVC,,0.35,WeatherDisplay:10.37,2014-02-05 22:16:00,
2014-02-05 17:21:00,46.6,46.3,29.76,West,270,18.4,18.4,99,0.00,OVC,,0.35,WeatherDisplay:10.37,2014-02-05 22:21:00,
2014-02-05 17:26:00,46.6,46.3,29.77,SW,225,21.9,21.9,99,0.00,OVC,,0.35,WeatherDisplay:10.37,2014-02-05 22:26:00,
2014-02-05 17:31:00,46.6,46.3,29.77,West,270,16.1,16.1,99,0.00,-SN,,0.35,WeatherDisplay:10.37,2014-02-05 22:31:00,
2014-02-05 17:36:00,46.6,46.3,29.77,West,270,17.3,17.3,99,0.00,-SN,,0.35,WeatherDisplay:10.37,2014-02-05 22:36:00,
2014-02-05 17:41:00,46.6,46.3,29.79,West,270,21.9,21.9,99,0.00,-SN,,0.35,WeatherDisplay:10.37,2014-02-05 22:41:00,
2014-02-05 17:46:00,46.6,46.3,29.79,WSW,248,19.6,19.6,99,0.00,-SN,,0.35,WeatherDisplay:10.37,2014-02-05 22:46:00,
2014-02-05 17:51:00,46.6,46.3,29.81,WSW,248,17.3,17.3,99,0.00,-SN,,0.35,WeatherDisplay:10.37,2014-02-05 22:51:00,
2014-02-05 17:56:00,46.6,46.3,29.81,West,270,16.1,16.1,99,0.00,-SN,,0.35,WeatherDisplay:10.37,2014-02-05 22:56:00,
2014-02-05 18:01:00,46.6,46.3,29.82,West,270,20.7,20.7,99,0.00,-SN,,0.35,WeatherDisplay:10.37,2014-02-05 23:01:00,
2014-02-05 18:06:00,46.6,46.3,29.82,West,270,20.7,20.7,99,0.00,-SN,,0.35,WeatherDisplay:10.37,2014-02-05 23:06:00,
2014-02-05 18:11:00,46.6,46.3,29.82,NW,315,21.9,21.9,99,0.00,-SN,,0.35,WeatherDisplay:10.37,2014-02-05 23:11:00,
2014-02-05 18:16:00,46.6,46.3,29.83,SW,225,21.2,21.2,99,0.00,-SN,,0.35,WeatherDisplay:10.37,2014-02-05 23:16:00,
2014-02-05 18:21:00,46.6,46.3,29.83,SW,225,15.0,15.0,99,0.00,-SN,,0.35,WeatherDisplay:10.37,2014-02-05 23:21:00,
2014-02-05 18:26:00,46.6,46.3,29.84,West,270,13.8,13.8,99,0.00,-SN,,0.35,WeatherDisplay:10.37,2014-02-05 23:26:00,
2014-02-05 18:31:00,46.6,46.3,29.84,West,270,16.1,16.1,99,0.00,OVC,,0.35,WeatherDisplay:10.37,2014-02-05 23:31:00,
2014-02-05 18:36:00,46.6,46.3,29.84,West,270,19.6,19.6,99,0.00,OVC,,0.35,WeatherDisplay:10.37,2014-02-05 23:36:00,
2014-02-05 18:41:00,46.6,46.3,29.85,West,270,13.8,13.8,99,0.00,OVC,,0.35,WeatherDisplay:10.37,2014-02-05 23:41:00,
2014-02-05 18:46:00,46.6,46.3,29.85,West,270,10.9,10.9,99,0.00,OVC,,0.35,WeatherDisplay:10.37,2014-02-05 23:46:00,
2014-02-05 18:51:00,46.6,46.3,29.86,WSW,248,19.6,19.6,99,0.00,OVC,,0.35,WeatherDisplay:10.37,2014-02-05 23:51:00,
2014-02-05 18:56:00,46.6,46.3,29.86,West,270,15.0,15.0,99,0.00,OVC,,0.35,WeatherDisplay:10.37,2014-02-05 23:56:00,
2014-02-05 19:01:00,46.6,46.3,29.87,West,270,11.5,11.5,99,0.00,OVC,,0.35,WeatherDisplay:10.37,2014-02-06 00:01:00,
2014-02-05 19:06:00,46.6,46.3,29.87,West,270,13.8,13.8,99,0.00,OVC,,0.35,WeatherDisplay:10.37,2014-02-06 00:06:00,
2014-02-05 19:11:00,46.6,46.3,29.87,WSW,248,21.9,21.9,99,0.00,OVC,,0.35,WeatherDisplay:10.37,2014-02-06 00:11:00,
2014-02-05 19:16:00,46.6,46.3,29.88,West,270,16.1,16.1,99,0.00,OVC,,0.35,WeatherDisplay:10.37,2014-02-06 00:16:00,
2014-02-05 19:21:00,46.6,46.3,29.88,WSW,248,18.4,18.4,99,0.00,OVC,,0.35,WeatherDisplay:10.37,2014-02-06 00:21:00,
2014-02-05 19:26:00,46.6,46.3,29.90,West,270,15.0,15.0,99,0.00,OVC,,0.35,WeatherDisplay:10.37,2014-02-06 00:26:00,
2014-02-05 19:31:00,46.6,46.3,29.90,WNW,292,21.9,21.9,99,0.00,OVC,,0.35,WeatherDisplay:10.37,2014-02-06 00:31:00,
2014-02-05 19:36:00,46.6,46.3,29.90,West,270,18.6,18.6,99,0.00,OVC,,0.35,WeatherDisplay:10.37,2014-02-06 00:36:00,
2014-02-05 19:41:00,46.6,46.3,29.90,WSW,248,18.6,18.6,99,0.00,OVC,,0.35,WeatherDisplay:10.37,2014-02-06 00:41:00,
2014-02-05 19:46:00,46.6,46.3,29.90,WSW,248,16.1,16.1,99,0.00,OVC,,0.35,WeatherDisplay:10.37,2014-02-06 00:46:00,
2014-02-05 19:51:00,46.6,46.3,29.90,West,270,11.5,11.5,99,0.00,OVC,,0.35,WeatherDisplay:10.37,2014-02-06 00:51:00,
2014-02-05 19:56:00,46.6,46.3,29.90,West,270,15.0,15.0,99,0.00,OVC,,0.35,WeatherDisplay:10.37,2014-02-06 00:56:00,
2014-02-05 20:01:00,46.6,46.3,29.90,WNW,292,15.0,15.0,99,0.00,OVC,,0.35,WeatherDisplay:10.37,2014-02-06 01:01:00,
2014-02-05 20:06:00,46.6,46.3,29.90,West,270,16.1,16.1,99,0.00,OVC,,0.35,WeatherDisplay:10.37,2014-02-06 01:06:00,
2014-02-05 20:11:00,46.6,46.3,29.90,West,270,13.8,13.8,99,0.00,OVC,,0.35,WeatherDisplay:10.37,2014-02-06 01:11:00,
2014-02-05 20:16:00,46.6,46.3,29.91,WSW,248,12.7,12.7,99,0.00,OVC,,0.35,WeatherDisplay:10.37,2014-02-06 01:16:00,
2014-02-05 20:21:00,46.6,46.3,29.91,West,270,11.5,11.5,99,0.00,OVC,,0.35,WeatherDisplay:10.37,2014-02-06 01:21:00,
2014-02-05 20:26:00,46.6,46.3,29.92,West,270,14.5,14.5,99,0.00,OVC,,0.35,WeatherDisplay:10.37,2014-02-06 01:26:00,
2014-02-05 20:31:00,46.6,46.3,29.92,West,270,17.3,17.3,99,0.00,OVC,,0.35,WeatherDisplay:10.37,2014-02-06 01:31:00,
2014-02-05 20:36:00,46.6,46.3,29.92,West,270,12.4,12.4,99,0.00,OVC,,0.35,WeatherDisplay:10.37,2014-02-06 01:36:00,
2014-02-05 20:41:00,46.6,46.3,29.92,West,270,13.8,13.8,99,0.00,OVC,,0.35,WeatherDisplay:10.37,2014-02-06 01:41:00,
2014-02-05 20:46:00,46.6,46.3,29.92,SW,225,16.6,16.6,99,0.00,OVC,,0.35,WeatherDisplay:10.37,2014-02-06 01:46:00,
2014-02-05 20:51:00,46.6,46.3,29.93,West,270,15.0,15.0,99,0.00,OVC,,0.35,WeatherDisplay:10.37,2014-02-06 01:51:00,
2014-02-05 20:56:00,46.6,46.3,29.93,West,270,18.4,18.4,99,0.00,OVC,,0.35,WeatherDisplay:10.37,2014-02-06 01:56:00,
2014-02-05 21:01:00,46.6,46.3,29.93,WSW,248,17.3,17.3,99,0.00,OVC,,0.35,WeatherDisplay:10.37,2014-02-06 02:01:00,
2014-02-05 21:06:00,46.6,46.3,29.93,West,270,12.7,12.7,99,0.00,OVC,,0.35,WeatherDisplay:10.37,2014-02-06 02:06:00,
2014-02-05 21:11:00,46.6,46.3,29.93,WSW,248,13.8,13.8,99,0.00,OVC,,0.35,WeatherDisplay:10.37,2014-02-06 02:11:00,
2014-02-05 21:16:00,46.6,46.3,29.94,West,270,18.6,18.6,99,0.00,OVC,,0.35,WeatherDisplay:10.37,2014-02-06 02:16:00,
2014-02-05 21:21:00,46.6,46.3,29.94,WSW,248,16.1,16.1,99,0.00,OVC,,0.35,WeatherDisplay:10.37,2014-02-06 02:21:00,
2014-02-05 21:26:00,46.6,46.3,29.95,West,270,11.5,11.5,99,0.00,OVC,,0.35,WeatherDisplay:10.37,2014-02-06 02:26:00,
2014-02-05 21:31:00,46.6,46.3,29.95,West,270,15.0,15.0,99,0.00,-SN,,0.35,WeatherDisplay:10.37,2014-02-06 02:31:00,
2014-02-05 21:36:00,46.6,46.3,29.95,West,270,16.1,16.1,99,0.00,-SN,,0.35,WeatherDisplay:10.37,2014-02-06 02:36:00,
2014-02-05 21:41:00,46.6,46.3,29.96,WNW,292,16.1,16.1,99,0.00,-SN,,0.35,WeatherDisplay:10.37,2014-02-06 02:41:00,
2014-02-05 21:46:00,46.6,46.3,29.96,West,270,12.4,12.4,99,0.00,-SN,,0.35,WeatherDisplay:10.37,2014-02-06 02:46:00,
2014-02-05 21:51:00,46.6,46.3,29.97,WSW,248,10.4,10.4,99,0.00,-SN,,0.35,WeatherDisplay:10.37,2014-02-06 02:51:00,
2014-02-05 21:56:00,46.6,46.3,29.97,West,270,8.1,8.1,99,0.00,-SN,,0.35,WeatherDisplay:10.37,2014-02-06 02:56:00,
2014-02-05 22:01:00,46.6,46.3,29.98,WSW,248,13.8,13.8,99,0.00,OVC,,0.35,WeatherDisplay:10.37,2014-02-06 03:01:00,
2014-02-05 22:06:00,46.6,46.3,29.98,WSW,248,12.7,12.7,99,0.00,OVC,,0.35,WeatherDisplay:10.37,2014-02-06 03:06:00,
2014-02-05 22:11:00,46.6,46.3,29.98,West,270,13.8,13.8,99,0.00,OVC,,0.35,WeatherDisplay:10.37,2014-02-06 03:11:00,
2014-02-05 22:16:00,46.6,46.3,29.98,WSW,248,12.7,12.7,99,0.00,OVC,,0.35,WeatherDisplay:10.37,2014-02-06 03:16:00,
2014-02-05 22:21:00,46.6,46.3,29.98,WSW,248,11.5,11.5,99,0.00,OVC,,0.35,WeatherDisplay:10.37,2014-02-06 03:21:00,
2014-02-05 22:26:00,46.6,46.3,29.99,WSW,248,7.3,7.3,99,0.00,OVC,,0.35,WeatherDisplay:10.37,2014-02-06 03:26:00,
2014-02-05 22:31:00,46.6,46.3,29.99,West,270,13.8,13.8,99,0.00,OVC,,0.35,WeatherDisplay:10.37,2014-02-06 03:31:00,
2014-02-05 22:36:00,46.6,46.3,29.99,West,270,11.5,11.5,99,0.00,OVC,,0.35,WeatherDisplay:10.37,2014-02-06 03:36:00,
2014-02-05 22:41:00,46.6,46.3,29.98,West,270,10.9,10.9,99,0.00,OVC,,0.35,WeatherDisplay:10.37,2014-02-06 03:41:00,
2014-02-05 22:46:00,46.6,46.3,29.98,West,270,15.0,15.0,99,0.00,OVC,,0.35,WeatherDisplay:10.37,2014-02-06 03:46:00,
2014-02-05 22:51:00,46.6,46.3,29.99,West,270,15.0,15.0,99,0.00,OVC,,0.35,WeatherDisplay:10.37,2014-02-06 03:51:00,
2014-02-05 22:56:00,46.6,46.3,29.99,WSW,248,10.4,10.4,99,0.00,OVC,,0.35,WeatherDisplay:10.37,2014-02-06 03:56:00,
2014-02-05 23:01:00,46.6,46.3,29.99,WSW,248,11.5,11.5,99,0.00,OVC,,0.35,WeatherDisplay:10.37,2014-02-06 04:01:00,
2014-02-05 23:06:00,46.6,46.3,30.00,SW,225,10.4,10.4,99,0.00,OVC,,0.35,WeatherDisplay:10.37,2014-02-06 04:06:00,
2014-02-05 23:11:00,46.6,46.3,30.00,West,270,8.1,8.1,99,0.00,OVC,,0.35,WeatherDisplay:10.37,2014-02-06 04:11:00,
2014-02-05 23:16:00,46.6,46.3,30.00,WSW,248,11.5,11.5,99,0.00,OVC,,0.35,WeatherDisplay:10.37,2014-02-06 04:16:00,
2014-02-05 23:21:00,46.6,46.3,30.00,WNW,292,10.4,10.4,99,0.00,OVC,,0.35,WeatherDisplay:10.37,2014-02-06 04:21:00,
2014-02-05 23:26:00,46.6,46.3,30.01,WSW,248,7.8,7.8,99,0.00,OVC,,0.35,WeatherDisplay:10.37,2014-02-06 04:26:00,
2014-02-05 23:31:00,46.6,46.3,30.01,WSW,248,9.2,9.2,99,0.00,OVC,,0.35,WeatherDisplay:10.37,2014-02-06 04:31:00,
2014-02-05 23:36:00,46.6,46.3,30.01,SW,225,9.2,9.2,99,0.00,OVC,,0.35,WeatherDisplay:10.37,2014-02-06 04:36:00,
2014-02-05 23:41:00,46.6,46.3,30.01,WSW,248,5.8,5.8,99,0.00,OVC,,0.35,WeatherDisplay:10.37,2014-02-06 04:41:00,
2014-02-05 23:46:00,46.6,46.3,30.01,WSW,248,8.1,8.1,99,0.00,OVC,,0.35,WeatherDisplay:10.37,2014-02-06 04:46:00,
2014-02-05 23:51:00,46.6,46.3,30.02,WSW,248,6.9,6.9,99,0.00,OVC,,0.35,WeatherDisplay:10.37,2014-02-06 04:51:00,
2014-02-05 23:56:00,46.6,46.3,30.02,WSW,248,6.8,6.8,99,0.00,OVC,,0.35,WeatherDisplay:10.37,2014-02-06 04:56:00,